Check out our new BloomSky Weather System.

Active alerts


No alerts


Thunder radar  blitzortung!


Rain radar more information rain snow radar


Visit our other weather sites:

Template documentation
and downloads

And another site



Weather Underground History page Text

Daily Summary for December 3, 2017 Units:  English    Metric   Both
« Previous Day
Next Day »
Daily Weekly Monthly Yearly Custom
  High: Low: Average:
Temperature: 68.5 °F 55.2 °F 63.7 °F
Dew Point: 67.5 °F 54.7 °F 62.7 °F
Humidity: 100 % 87 % 97 %
Wind Speed: 10.0 mph 0.0 mph 1.2 mph
Wind Gust: 13.0 mph - -
Wind:- - SE
Pressure: 30.15 in 30.00 in -
Precipitation: 0.86 in    
Historical Graphs
 
 
Tabular Data for December 3, 2017
Time Temperature Dew Point Pressure Wind Wind Speed Wind Gust Humidity Rainfall Rate (Hourly)
00:07 59.4 °F 57.6 °F 30.12 in Calm   1.0 mph 94 % 0.00 in
00:12 59.5 °F 58.1 °F 30.12 in Calm   1.0 mph 95 % 0.00 in
00:17 59.5 °F 58.1 °F 30.12 in Calm   1.0 mph 95 % 0.00 in
00:22 59.5 °F 58.1 °F 30.12 in Calm   1.0 mph 95 % 0.00 in
00:29 59.7 °F 58.3 °F 30.12 in Calm   1.0 mph 95 % 0.00 in
00:39 59.7 °F 58.3 °F 30.11 in Calm   1.0 mph 95 % 0.00 in
00:44 59.5 °F 58.1 °F 30.12 in Calm   1.0 mph 95 % 0.00 in
00:49 59.4 °F 57.9 °F 30.11 in Calm   1.0 mph 95 % 0.00 in
00:54 59.4 °F 57.9 °F 30.11 in Calm   1.0 mph 95 % 0.00 in
00:59 59.4 °F 57.9 °F 30.11 in Calm   1.0 mph 95 % 0.00 in
01:09 58.8 °F 57.4 °F 30.11 in Calm     95 % 0.00 in
01:14 58.8 °F 57.4 °F 30.11 in Calm     95 % 0.00 in
01:19 58.6 °F 57.6 °F 30.11 in Calm     96 % 0.00 in
01:24 58.5 °F 57.0 °F 30.11 in Calm   1.0 mph 95 % 0.00 in
01:39 57.9 °F 56.8 °F 30.10 in Calm     96 % 0.00 in
01:50 57.9 °F 56.8 °F 30.10 in Calm     96 % 0.00 in
01:55 57.9 °F 56.8 °F 30.10 in Calm     96 % 0.00 in
02:00 57.7 °F 56.7 °F 30.10 in Calm     96 % 0.00 in
02:05 57.6 °F 56.5 °F 30.10 in Calm     96 % 0.00 in
02:10 57.4 °F 56.3 °F 30.10 in Calm     96 % 0.00 in
02:15 57.2 °F 56.1 °F 30.10 in Calm     96 % 0.00 in
02:20 57.4 °F 56.5 °F 30.09 in Calm     97 % 0.00 in
02:25 57.6 °F 56.7 °F 30.09 in Calm     97 % 0.00 in
02:30 57.6 °F 56.7 °F 30.09 in Calm     97 % 0.00 in
02:40 57.6 °F 56.7 °F 30.09 in Calm     97 % 0.00 in
03:00 57.4 °F 56.5 °F 30.09 in Calm     97 % 0.00 in
03:05 57.4 °F 56.5 °F 30.09 in Calm     97 % 0.00 in
03:15 57.4 °F 56.5 °F 30.08 in Calm     97 % 0.00 in
03:20 57.2 °F 56.3 °F 30.08 in Calm     97 % 0.00 in
03:25 57.2 °F 56.3 °F 30.08 in Calm     97 % 0.00 in
03:30 57.2 °F 56.3 °F 30.08 in Calm     97 % 0.00 in
03:35 57.2 °F 56.3 °F 30.08 in Calm     97 % 0.00 in
03:40 57.0 °F 56.1 °F 30.08 in Calm   1.0 mph 97 % 0.00 in
03:45 57.0 °F 56.1 °F 30.08 in Calm   1.0 mph 97 % 0.00 in
03:50 57.0 °F 56.1 °F 30.08 in Calm   1.0 mph 97 % 0.00 in
03:55 56.8 °F 55.9 °F 30.08 in Calm   1.0 mph 97 % 0.00 in
04:00 56.8 °F 55.9 °F 30.08 in Calm   1.0 mph 97 % 0.00 in
04:05 56.8 °F 55.9 °F 30.08 in Calm     97 % 0.00 in
04:10 56.7 °F 55.8 °F 30.08 in Calm     97 % 0.00 in
04:15 56.7 °F 55.8 °F 30.08 in Calm     97 % 0.00 in
04:21 56.5 °F 55.9 °F 30.08 in Calm     98 % 0.00 in
04:26 56.5 °F 55.9 °F 30.09 in Calm     98 % 0.00 in
04:31 56.3 °F 55.4 °F 30.09 in Calm     97 % 0.00 in
04:36 56.1 °F 55.6 °F 30.09 in Calm     98 % 0.00 in
04:41 55.9 °F 55.4 °F 30.09 in Calm     98 % 0.00 in
04:46 55.9 °F 55.4 °F 30.09 in Calm     98 % 0.00 in
04:51 55.8 °F 55.2 °F 30.09 in Calm     98 % 0.00 in
04:56 55.6 °F 54.7 °F 30.09 in Calm     97 % 0.00 in
05:01 55.6 °F 55.0 °F 30.09 in Calm     98 % 0.00 in
05:06 55.6 °F 55.0 °F 30.09 in Calm     98 % 0.00 in
05:11 55.8 °F 55.2 °F 30.09 in Calm     98 % 0.00 in
05:16 55.8 °F 55.2 °F 30.09 in Calm     98 % 0.00 in
05:21 55.8 °F 55.2 °F 30.09 in Calm     98 % 0.00 in
05:26 55.6 °F 55.0 °F 30.09 in Calm     98 % 0.00 in
05:31 55.6 °F 55.0 °F 30.09 in Calm     98 % 0.00 in
05:36 55.6 °F 55.0 °F 30.09 in Calm     98 % 0.00 in
05:38 55.6 °F 55.0 °F 30.09 in Calm     98 % 0.00 in
05:43 55.4 °F 54.9 °F 30.09 in Calm     98 % 0.00 in
05:48 55.2 °F 54.7 °F 30.09 in Calm     98 % 0.00 in
05:53 55.2 °F 54.7 °F 30.10 in Calm     98 % 0.00 in
05:58 55.2 °F 54.7 °F 30.10 in Calm     98 % 0.00 in
06:03 55.2 °F 54.7 °F 30.10 in Calm     98 % 0.00 in
06:08 55.2 °F 54.7 °F 30.10 in Calm     98 % 0.00 in
06:13 55.2 °F 54.7 °F 30.10 in Calm     98 % 0.00 in
06:18 55.4 °F 54.9 °F 30.10 in Calm   1.0 mph 98 % 0.00 in
06:23 55.4 °F 54.9 °F 30.10 in Calm   1.0 mph 98 % 0.00 in
06:28 55.8 °F 55.2 °F 30.10 in Calm   1.0 mph 98 % 0.00 in
06:33 55.9 °F 55.4 °F 30.11 in Calm   1.0 mph 98 % 0.00 in
06:38 56.1 °F 55.8 °F 30.11 in Calm   2.0 mph 99 % 0.00 in
06:43 56.5 °F 56.1 °F 30.11 in Calm   2.0 mph 99 % 0.00 in
06:44 56.5 °F 56.1 °F 30.11 in Calm   2.0 mph 99 % 0.00 in
06:49 56.5 °F 55.9 °F 30.11 in Calm   2.0 mph 98 % 0.00 in
06:54 56.5 °F 55.9 °F 30.11 in Calm   2.0 mph 98 % 0.00 in
06:59 56.7 °F 56.1 °F 30.12 in Calm   1.0 mph 98 % 0.00 in
07:04 56.7 °F 56.1 °F 30.12 in Calm   1.0 mph 98 % 0.00 in
07:09 56.7 °F 56.1 °F 30.12 in Calm   1.0 mph 98 % 0.00 in
07:14 56.7 °F 56.1 °F 30.12 in Calm   1.0 mph 98 % 0.00 in
07:15 56.7 °F 56.1 °F 30.12 in Calm   1.0 mph 98 % 0.00 in
07:20 56.8 °F 56.5 °F 30.12 in Calm   1.0 mph 99 % 0.00 in
07:25 56.8 °F 56.5 °F 30.12 in Calm   1.0 mph 99 % 0.00 in
07:30 57.0 °F 56.7 °F 30.12 in ENE 1.0 mph 1.0 mph 99 % 0.00 in
07:35 57.2 °F 56.8 °F 30.12 in Calm   2.0 mph 99 % 0.00 in
07:40 57.2 °F 56.8 °F 30.12 in ENE 1.0 mph 2.0 mph 99 % 0.00 in
07:45 57.4 °F 57.0 °F 30.12 in Calm   2.0 mph 99 % 0.00 in
07:50 57.4 °F 57.0 °F 30.12 in East 1.0 mph 2.0 mph 99 % 0.00 in
07:55 57.6 °F 57.2 °F 30.12 in Calm   3.0 mph 99 % 0.00 in
08:00 57.6 °F 57.2 °F 30.12 in Calm   3.0 mph 99 % 0.00 in
08:05 57.7 °F 57.4 °F 30.12 in ENE 1.0 mph 3.0 mph 99 % 0.00 in
08:10 57.7 °F 57.4 °F 30.12 in Calm   3.0 mph 99 % 0.00 in
08:15 57.9 °F 57.6 °F 30.13 in ENE 1.0 mph 3.0 mph 99 % 0.00 in
08:20 58.3 °F 57.9 °F 30.13 in North 1.0 mph 3.0 mph 99 % 0.00 in
08:25 58.5 °F 58.1 °F 30.13 in Calm   2.0 mph 99 % 0.00 in
08:30 58.8 °F 58.5 °F 30.13 in Calm   2.0 mph 99 % 0.00 in
08:35 59.4 °F 59.0 °F 30.13 in East 1.0 mph 2.0 mph 99 % 0.00 in
08:40 59.7 °F 59.4 °F 30.13 in Calm   3.0 mph 99 % 0.00 in
08:45 60.3 °F 59.9 °F 30.13 in East 2.0 mph 3.0 mph 99 % 0.00 in
08:50 60.4 °F 60.1 °F 30.13 in Calm   4.0 mph 99 % 0.00 in
08:56 61.0 °F 60.6 °F 30.13 in East 1.0 mph 4.0 mph 99 % 0.00 in
09:01 61.5 °F 61.2 °F 30.14 in Calm   4.0 mph 99 % 0.00 in
09:06 62.6 °F 62.6 °F 30.14 in Calm   4.0 mph 100 % 0.00 in
09:11 63.1 °F 62.8 °F 30.14 in East 2.0 mph 5.0 mph 99 % 0.00 in
09:16 63.1 °F 62.6 °F 30.14 in Calm   5.0 mph 98 % 0.00 in
09:21 63.9 °F 63.3 °F 30.14 in ENE 1.0 mph 5.0 mph 98 % 0.00 in
09:26 64.0 °F 63.1 °F 30.15 in Calm   3.0 mph 97 % 0.00 in
09:31 64.2 °F 63.3 °F 30.15 in Calm   2.0 mph 97 % 0.00 in
09:36 64.4 °F 63.0 °F 30.14 in ESE 1.0 mph 3.0 mph 95 % 0.00 in
09:41 64.6 °F 63.1 °F 30.14 in East 2.0 mph 3.0 mph 95 % 0.00 in
09:46 64.8 °F 63.0 °F 30.14 in SE 1.0 mph 3.0 mph 94 % 0.00 in
09:51 65.1 °F 63.0 °F 30.14 in ENE 1.0 mph 2.0 mph 93 % 0.00 in
09:56 65.5 °F 63.1 °F 30.14 in East 1.0 mph 2.0 mph 92 % 0.00 in
10:01 65.5 °F 62.8 °F 30.14 in SE 2.0 mph 2.0 mph 91 % 0.00 in
10:06 65.5 °F 62.4 °F 30.13 in East 1.0 mph 4.0 mph 90 % 0.00 in
10:11 65.8 °F 62.8 °F 30.13 in North 1.0 mph 4.0 mph 90 % 0.00 in
10:13 65.8 °F 62.8 °F 30.13 in East 2.0 mph 4.0 mph 90 % 0.00 in
10:18 66.6 °F 63.5 °F 30.13 in NNE 2.0 mph 4.0 mph 90 % 0.00 in
10:23 66.9 °F 63.5 °F 30.13 in East 1.0 mph 4.0 mph 89 % 0.00 in
10:28 67.1 °F 63.5 °F 30.13 in ENE 1.0 mph 4.0 mph 88 % 0.00 in
10:33 67.3 °F 63.9 °F 30.12 in ESE 3.0 mph 5.0 mph 89 % 0.00 in
10:38 67.6 °F 64.0 °F 30.12 in East 3.0 mph 5.0 mph 88 % 0.00 in
10:43 67.8 °F 64.2 °F 30.12 in SSE 1.0 mph 5.0 mph 88 % 0.00 in
10:48 68.4 °F 64.6 °F 30.12 in Calm   5.0 mph 88 % 0.00 in
10:53 68.5 °F 64.6 °F 30.12 in Calm   5.0 mph 87 % 0.00 in
10:58 68.5 °F 64.6 °F 30.12 in East 2.0 mph 4.0 mph 87 % 0.00 in
11:03 68.4 °F 64.4 °F 30.12 in East 1.0 mph 3.0 mph 87 % 0.00 in
11:08 68.2 °F 64.4 °F 30.12 in NW 1.0 mph 3.0 mph 88 % 0.00 in
11:13 68.2 °F 64.4 °F 30.12 in ENE 1.0 mph 3.0 mph 88 % 0.00 in
11:18 68.2 °F 64.8 °F 30.12 in Calm   2.0 mph 89 % 0.01 in
11:23 68.0 °F 64.9 °F 30.12 in Calm   2.0 mph 90 % 0.01 in
11:28 67.8 °F 64.8 °F 30.11 in Calm   2.0 mph 90 % 0.01 in
11:33 67.8 °F 65.1 °F 30.11 in Calm   2.0 mph 91 % 0.01 in
11:38 68.0 °F 65.7 °F 30.10 in East 1.0 mph 2.0 mph 92 % 0.01 in
11:43 68.4 °F 66.0 °F 30.10 in Calm   2.0 mph 92 % 0.01 in
11:48 68.5 °F 66.2 °F 30.10 in ESE 2.0 mph 3.0 mph 92 % 0.01 in
11:53 68.5 °F 66.2 °F 30.09 in SE 1.0 mph 3.0 mph 92 % 0.01 in
11:58 68.5 °F 65.8 °F 30.09 in ESE 1.0 mph 3.0 mph 91 % 0.01 in
12:03 68.2 °F 65.5 °F 30.08 in ESE 1.0 mph 5.0 mph 91 % 0.01 in
12:08 68.2 °F 65.8 °F 30.08 in Calm   7.0 mph 92 % 0.01 in
12:13 68.0 °F 65.7 °F 30.08 in East 2.0 mph 7.0 mph 92 % 0.01 in
12:18 67.6 °F 65.3 °F 30.07 in Calm   9.0 mph 92 % 0.01 in
12:23 67.5 °F 65.3 °F 30.07 in South 2.0 mph 9.0 mph 93 % 0.04 in
12:28 67.3 °F 65.5 °F 30.08 in SSE 2.0 mph 9.0 mph 94 % 0.04 in
12:33 66.9 °F 65.1 °F 30.08 in ENE 3.0 mph 6.0 mph 94 % 0.13 in
12:38 66.7 °F 64.9 °F 30.06 in East 3.0 mph 6.0 mph 94 % 0.29 in
12:43 66.4 °F 64.9 °F 30.07 in Calm   6.0 mph 95 % 0.38 in
12:48 66.4 °F 64.9 °F 30.07 in Calm   5.0 mph 95 % 0.39 in
12:53 66.4 °F 65.1 °F 30.06 in Calm   4.0 mph 96 % 0.39 in
12:58 66.4 °F 65.1 °F 30.06 in ENE 1.0 mph 4.0 mph 96 % 0.39 in
13:03 66.7 °F 65.8 °F 30.06 in South 2.0 mph 4.0 mph 97 % 0.39 in
13:08 67.1 °F 66.2 °F 30.06 in ESE 1.0 mph 5.0 mph 97 % 0.39 in
13:13 67.5 °F 66.6 °F 30.05 in East 2.0 mph 5.0 mph 97 % 0.39 in
13:18 67.5 °F 66.6 °F 30.05 in Calm   5.0 mph 97 % 0.38 in
13:23 67.6 °F 66.7 °F 30.05 in Calm   4.0 mph 97 % 0.35 in
13:29 67.8 °F 66.9 °F 30.04 in East 3.0 mph 4.0 mph 97 % 0.34 in
13:34 67.8 °F 66.6 °F 30.04 in Calm   3.0 mph 96 % 0.25 in
13:39 67.6 °F 66.4 °F 30.04 in ENE 1.0 mph 4.0 mph 96 % 0.10 in
13:44 67.6 °F 66.4 °F 30.04 in Calm   4.0 mph 96 % 0.01 in
13:49 67.8 °F 66.9 °F 30.04 in Calm   4.0 mph 97 % 0.00 in
13:54 67.8 °F 66.6 °F 30.03 in East 2.0 mph 4.0 mph 96 % 0.00 in
13:59 68.0 °F 66.7 °F 30.03 in Calm   4.0 mph 96 % 0.00 in
14:04 68.2 °F 67.3 °F 30.03 in ESE 2.0 mph 4.0 mph 97 % 0.00 in
14:09 68.4 °F 67.1 °F 30.02 in SE 1.0 mph 4.0 mph 96 % 0.00 in
14:14 68.2 °F 66.9 °F 30.02 in ESE 2.0 mph 4.0 mph 96 % 0.00 in
14:19 68.2 °F 66.9 °F 30.02 in East 1.0 mph 5.0 mph 96 % 0.00 in
14:24 68.0 °F 66.7 °F 30.01 in East 2.0 mph 5.0 mph 96 % 0.00 in
14:29 67.8 °F 66.6 °F 30.01 in NE 1.0 mph 6.0 mph 96 % 0.00 in
14:34 67.8 °F 66.6 °F 30.02 in ESE 3.0 mph 6.0 mph 96 % 0.00 in
14:39 67.8 °F 66.6 °F 30.02 in Calm   6.0 mph 96 % 0.00 in
14:44 67.8 °F 66.6 °F 30.02 in Calm   4.0 mph 96 % 0.00 in
14:49 67.8 °F 66.6 °F 30.02 in Calm   4.0 mph 96 % 0.00 in
14:54 67.8 °F 66.6 °F 30.01 in Calm   3.0 mph 96 % 0.00 in
14:59 67.8 °F 66.6 °F 30.02 in Calm   3.0 mph 96 % 0.00 in
15:04 67.8 °F 66.6 °F 30.01 in Calm   3.0 mph 96 % 0.00 in
15:09 67.8 °F 66.6 °F 30.02 in Calm   3.0 mph 96 % 0.00 in
15:14 67.6 °F 66.4 °F 30.01 in ENE 1.0 mph 3.0 mph 96 % 0.00 in
15:19 67.6 °F 66.4 °F 30.02 in Calm   3.0 mph 96 % 0.00 in
15:20 67.5 °F 66.2 °F 30.02 in ENE 1.0 mph 3.0 mph 96 % 0.00 in
15:25 67.5 °F 66.2 °F 30.02 in Calm   3.0 mph 96 % 0.00 in
15:30 67.5 °F 66.6 °F 30.02 in Calm   3.0 mph 97 % 0.00 in
15:35 67.3 °F 66.4 °F 30.01 in Calm   4.0 mph 97 % 0.00 in
15:40 67.3 °F 66.4 °F 30.01 in Calm   4.0 mph 97 % 0.00 in
15:45 67.3 °F 66.4 °F 30.01 in NE 2.0 mph 4.0 mph 97 % 0.00 in
15:50 67.3 °F 66.4 °F 30.01 in North 1.0 mph 4.0 mph 97 % 0.00 in
15:55 67.3 °F 66.4 °F 30.02 in NNW 2.0 mph 4.0 mph 97 % 0.00 in
16:00 67.1 °F 66.2 °F 30.02 in North 1.0 mph 4.0 mph 97 % 0.00 in
16:05 67.1 °F 66.2 °F 30.02 in ESE 2.0 mph 3.0 mph 97 % 0.00 in
16:10 67.1 °F 66.2 °F 30.02 in North 1.0 mph 2.0 mph 97 % 0.00 in
16:15 67.1 °F 66.2 °F 30.01 in ENE 1.0 mph 3.0 mph 97 % 0.00 in
16:20 66.9 °F 66.0 °F 30.01 in Calm   3.0 mph 97 % 0.00 in
16:25 66.9 °F 66.0 °F 30.01 in Calm   4.0 mph 97 % 0.00 in
16:30 66.9 °F 66.0 °F 30.01 in ESE 1.0 mph 4.0 mph 97 % 0.01 in
16:35 66.9 °F 66.0 °F 30.01 in Calm   4.0 mph 97 % 0.01 in
16:40 66.9 °F 66.0 °F 30.01 in North 2.0 mph 3.0 mph 97 % 0.02 in
16:45 66.9 °F 66.4 °F 30.00 in North 1.0 mph 4.0 mph 98 % 0.03 in
16:51 66.7 °F 66.2 °F 30.00 in North 1.0 mph 4.0 mph 98 % 0.04 in
16:56 66.7 °F 66.2 °F 30.01 in NE 1.0 mph 4.0 mph 98 % 0.06 in
17:01 66.7 °F 66.2 °F 30.01 in NNE 1.0 mph 2.0 mph 98 % 0.07 in
17:06 66.7 °F 66.2 °F 30.01 in Calm   3.0 mph 98 % 0.07 in
17:11 66.7 °F 66.2 °F 30.01 in ENE 3.0 mph 3.0 mph 98 % 0.08 in
17:16 66.9 °F 66.4 °F 30.01 in Calm   4.0 mph 98 % 0.08 in
17:21 66.9 °F 66.4 °F 30.01 in Calm   4.0 mph 98 % 0.09 in
17:26 66.9 °F 66.4 °F 30.00 in ENE 1.0 mph 4.0 mph 98 % 0.10 in
17:31 66.9 °F 66.4 °F 30.01 in Calm   2.0 mph 98 % 0.11 in
17:36 66.9 °F 66.4 °F 30.01 in Calm   2.0 mph 98 % 0.12 in
17:41 66.9 °F 66.4 °F 30.01 in Calm   2.0 mph 98 % 0.12 in
17:46 66.9 °F 66.4 °F 30.01 in NNW 1.0 mph 3.0 mph 98 % 0.12 in
17:51 66.9 °F 66.4 °F 30.01 in NE 1.0 mph 3.0 mph 98 % 0.11 in
17:56 66.9 °F 66.4 °F 30.00 in SE 1.0 mph 4.0 mph 98 % 0.11 in
18:01 66.9 °F 66.4 °F 30.00 in Calm   5.0 mph 98 % 0.10 in
18:06 66.9 °F 66.4 °F 30.00 in ESE 2.0 mph 8.0 mph 98 % 0.12 in
18:11 66.7 °F 66.2 °F 30.01 in SE 1.0 mph 8.0 mph 98 % 0.14 in
18:16 66.7 °F 66.2 °F 30.02 in ESE 1.0 mph 8.0 mph 98 % 0.21 in
18:21 66.7 °F 66.4 °F 30.02 in ENE 3.0 mph 6.0 mph 99 % 0.27 in
18:26 66.9 °F 66.6 °F 30.02 in ENE 4.0 mph 5.0 mph 99 % 0.29 in
18:31 66.9 °F 66.6 °F 30.02 in Calm   5.0 mph 99 % 0.30 in
18:36 66.9 °F 66.6 °F 30.02 in ESE 2.0 mph 6.0 mph 99 % 0.29 in
18:41 66.9 °F 66.6 °F 30.01 in East 4.0 mph 6.0 mph 99 % 0.28 in
18:42 66.9 °F 66.6 °F 30.01 in NNW 1.0 mph 6.0 mph 99 % 0.28 in
18:47 66.9 °F 66.6 °F 30.01 in NE 2.0 mph 6.0 mph 99 % 0.28 in
18:52 66.9 °F 66.6 °F 30.02 in East 3.0 mph 6.0 mph 99 % 0.27 in
18:57 66.9 °F 66.6 °F 30.01 in ESE 8.0 mph 8.0 mph 99 % 0.26 in
19:02 66.9 °F 66.6 °F 30.01 in NNW 3.0 mph 12.0 mph 99 % 0.26 in
19:07 66.9 °F 66.6 °F 30.01 in SSE 2.0 mph 12.0 mph 99 % 0.24 in
19:12 66.9 °F 66.6 °F 30.02 in SW 2.0 mph 12.0 mph 99 % 0.21 in
19:17 66.9 °F 66.6 °F 30.02 in Calm   11.0 mph 99 % 0.14 in
19:22 66.9 °F 66.6 °F 30.02 in SE 1.0 mph 7.0 mph 99 % 0.07 in
19:27 67.1 °F 66.7 °F 30.02 in SSE 2.0 mph 6.0 mph 99 % 0.05 in
19:32 67.1 °F 66.7 °F 30.01 in SE 5.0 mph 5.0 mph 99 % 0.02 in
19:37 66.9 °F 66.6 °F 30.01 in Calm   8.0 mph 99 % 0.03 in
19:42 66.9 °F 66.6 °F 30.01 in Calm   8.0 mph 99 % 0.03 in
19:47 66.7 °F 66.4 °F 30.01 in SE 1.0 mph 8.0 mph 99 % 0.02 in
19:50 66.7 °F 66.4 °F 30.01 in East 4.0 mph 7.0 mph 99 % 0.02 in
19:55 66.7 °F 66.4 °F 30.01 in ESE 1.0 mph 9.0 mph 99 % 0.02 in
20:00 66.7 °F 66.4 °F 30.01 in East 1.0 mph 9.0 mph 99 % 0.02 in
20:05 66.7 °F 66.4 °F 30.01 in East 2.0 mph 9.0 mph 99 % 0.02 in
20:10 66.7 °F 66.4 °F 30.01 in SE 3.0 mph 9.0 mph 99 % 0.02 in
20:15 66.7 °F 66.4 °F 30.00 in South 2.0 mph 9.0 mph 99 % 0.02 in
20:16 66.7 °F 66.4 °F 30.01 in Calm   9.0 mph 99 % 0.02 in
20:21 66.9 °F 66.6 °F 30.01 in SSW 1.0 mph 9.0 mph 99 % 0.02 in
20:26 66.9 °F 66.6 °F 30.01 in SE 6.0 mph 8.0 mph 99 % 0.01 in
20:31 66.9 °F 66.6 °F 30.02 in SW 1.0 mph 10.0 mph 99 % 0.01 in
20:36 67.1 °F 66.7 °F 30.02 in South 2.0 mph 10.0 mph 99 % 0.00 in
20:41 67.1 °F 66.7 °F 30.02 in SSE 3.0 mph 10.0 mph 99 % 0.00 in
20:46 67.1 °F 66.7 °F 30.02 in SE 4.0 mph 9.0 mph 99 % 0.00 in
20:51 67.1 °F 66.7 °F 30.02 in SSE 2.0 mph 9.0 mph 99 % 0.00 in
20:56 67.1 °F 66.7 °F 30.02 in SE 2.0 mph 9.0 mph 99 % 0.00 in
21:01 67.1 °F 66.7 °F 30.02 in SE 2.0 mph 9.0 mph 99 % 0.00 in
21:06 67.1 °F 66.7 °F 30.02 in SE 3.0 mph 9.0 mph 99 % 0.00 in
21:11 67.3 °F 66.9 °F 30.01 in SSE 3.0 mph 9.0 mph 99 % 0.00 in
21:18 67.3 °F 66.9 °F 30.01 in SE 3.0 mph 9.0 mph 99 % 0.00 in
21:19 67.3 °F 66.9 °F 30.01 in South 3.0 mph 9.0 mph 99 % 0.00 in
21:22 67.3 °F 66.9 °F 30.01 in South 5.0 mph 9.0 mph 99 % 0.00 in
21:23 67.3 °F 66.9 °F 30.01 in ESE 7.0 mph 9.0 mph 99 % 0.00 in
21:27 67.3 °F 66.9 °F 30.01 in SSE 4.0 mph 9.0 mph 99 % 0.00 in
21:28 67.3 °F 66.9 °F 30.01 in SSE 8.0 mph 9.0 mph 99 % 0.00 in
21:33 67.3 °F 66.9 °F 30.02 in SE 2.0 mph 11.0 mph 99 % 0.00 in
21:38 67.3 °F 66.9 °F 30.01 in ESE 4.0 mph 11.0 mph 99 % 0.00 in
21:42 67.3 °F 66.9 °F 30.02 in East 8.0 mph 11.0 mph 99 % 0.00 in
21:47 67.3 °F 66.9 °F 30.02 in SE 3.0 mph 10.0 mph 99 % 0.00 in
21:52 67.5 °F 67.1 °F 30.02 in ESE 3.0 mph 10.0 mph 99 % 0.00 in
21:57 67.5 °F 67.1 °F 30.02 in SE 2.0 mph 10.0 mph 99 % 0.00 in
22:02 67.5 °F 67.1 °F 30.02 in SSE 5.0 mph 10.0 mph 99 % 0.00 in
22:07 67.5 °F 67.1 °F 30.02 in ESE 3.0 mph 11.0 mph 99 % 0.00 in
22:12 67.6 °F 67.3 °F 30.02 in SSE 10.0 mph 11.0 mph 99 % 0.00 in
22:17 67.6 °F 67.3 °F 30.02 in SSW 2.0 mph 11.0 mph 99 % 0.01 in
22:22 67.8 °F 67.5 °F 30.03 in SE 8.0 mph 11.0 mph 99 % 0.01 in
22:27 67.8 °F 67.5 °F 30.03 in SE 4.0 mph 13.0 mph 99 % 0.01 in
22:32 67.8 °F 67.3 °F 30.02 in SSE 6.0 mph 13.0 mph 98 % 0.01 in
22:37 67.8 °F 67.3 °F 30.02 in SSE 6.0 mph 13.0 mph 98 % 0.01 in
22:42 67.8 °F 67.3 °F 30.02 in SE 3.0 mph 12.0 mph 98 % 0.01 in
22:47 67.8 °F 67.3 °F 30.01 in SE 4.0 mph 12.0 mph 98 % 0.01 in
22:52 67.6 °F 67.1 °F 30.01 in SE 5.0 mph 10.0 mph 98 % 0.01 in
22:57 67.6 °F 67.1 °F 30.01 in East 5.0 mph 11.0 mph 98 % 0.01 in
23:02 67.6 °F 67.1 °F 30.01 in SSE 3.0 mph 11.0 mph 98 % 0.01 in
23:07 67.6 °F 67.1 °F 30.02 in SE 6.0 mph 11.0 mph 98 % 0.01 in
23:12 67.5 °F 66.6 °F 30.01 in ESE 4.0 mph 10.0 mph 97 % 0.01 in
23:17 67.5 °F 66.6 °F 30.01 in SSE 4.0 mph 10.0 mph 97 % 0.00 in
23:22 67.3 °F 66.4 °F 30.01 in SE 3.0 mph 10.0 mph 97 % 0.00 in
23:27 67.3 °F 66.4 °F 30.01 in SE 5.0 mph 9.0 mph 97 % 0.00 in
23:32 67.3 °F 66.4 °F 30.01 in ESE 8.0 mph 9.0 mph 97 % 0.00 in
23:38 67.3 °F 66.4 °F 30.01 in SSE 3.0 mph 9.0 mph 97 % 0.00 in
23:43 67.3 °F 66.4 °F 30.01 in SSE 2.0 mph 8.0 mph 97 % 0.00 in
23:48 67.3 °F 66.4 °F 30.01 in SE 2.0 mph 8.0 mph 97 % 0.00 in
23:53 67.3 °F 66.4 °F 30.01 in SSE 2.0 mph 8.0 mph 97 % 0.00 in
23:58 67.3 °F 66.4 °F 30.00 in SE 1.0 mph 8.0 mph 97 % 0.00 in
Spring, Texas: Villages of Bridgestone
Compliments of Weather Underground - 2.75 mb

Script developed by  Jim McMurry - jmcmurry@mwt.net Adapted for the template by  Wim van der Kuil - Leuven-Template.eu

You find our weather info also at:

UK Metoffice

WeatherCloud

Weather Underground

Mid-South Weather Network

AWEKAS

Citizen Weather Observer Program (CWOP)

HAMweather, WeatherForYou, PWS Weather

Equipment we use:

Weather-station
Davis Vantage Vue

Weather-program
Meteohub

Weather-server
Debian 7.9 x86 (Guest)

Provider
DreamHost

Davis Vantage Vue

Meteohub

Debian 7.9 x86 (Guest)

DreamHost